sensor_id;sensor_type;location;lat;lon;timestamp;pressure;altitude;pressure_sealevel;temperature;humidity
50774;BME280;36745;48.544;8.918;2022-11-20T00:01:33;96844.38;;;3.86;99.14
50774;BME280;36745;48.544;8.918;2022-11-20T00:04:54;96842.56;;;3.75;99.17
50774;BME280;36745;48.544;8.918;2022-11-20T00:08:16;96842.94;;;3.77;99.71
50774;BME280;36745;48.544;8.918;2022-11-20T00:11:37;96849.97;;;3.75;99.45
50774;BME280;36745;48.544;8.918;2022-11-20T00:14:58;96851.56;;;3.72;99.45
50774;BME280;36745;48.544;8.918;2022-11-20T00:18:19;96849.25;;;3.67;99.53
50774;BME280;36745;48.544;8.918;2022-11-20T00:21:41;96856.25;;;3.68;98.95
50774;BME280;36745;48.544;8.918;2022-11-20T00:25:02;96856.34;;;3.61;99.75
50774;BME280;36745;48.544;8.918;2022-11-20T00:28:23;96849.38;;;3.57;99.61
50774;BME280;36745;48.544;8.918;2022-11-20T00:31:45;96853.31;;;3.52;99.78
50774;BME280;36745;48.544;8.918;2022-11-20T00:35:06;96851.81;;;3.48;99.41
50774;BME280;36745;48.544;8.918;2022-11-20T00:38:27;96853.03;;;3.43;98.63
50774;BME280;36745;48.544;8.918;2022-11-20T00:41:49;96855.09;;;3.32;98.81
50774;BME280;36745;48.544;8.918;2022-11-20T00:45:11;96861.34;;;3.29;98.02
50774;BME280;36745;48.544;8.918;2022-11-20T00:48:32;96866.16;;;3.11;97.96
50774;BME280;36745;48.544;8.918;2022-11-20T00:51:53;96868.69;;;2.87;98.40
50774;BME280;36745;48.544;8.918;2022-11-20T00:55:14;96872.63;;;2.83;98.47
50774;BME280;36745;48.544;8.918;2022-11-20T00:58:38;96877.34;;;2.75;98.61
50774;BME280;36745;48.544;8.918;2022-11-20T01:01:59;96871.56;;;2.66;98.34
50774;BME280;36745;48.544;8.918;2022-11-20T01:05:20;96874.38;;;2.52;99.53
50774;BME280;36745;48.544;8.918;2022-11-20T01:08:42;96875.56;;;2.44;99.73
50774;BME280;36745;48.544;8.918;2022-11-20T01:12:04;96868.66;;;2.36;100.00
50774;BME280;36745;48.544;8.918;2022-11-20T01:15:25;96876.41;;;2.34;100.00
50774;BME280;36745;48.544;8.918;2022-11-20T01:18:49;96876.09;;;2.25;100.00
50774;BME280;36745;48.544;8.918;2022-11-20T01:22:11;96879.19;;;2.27;100.00
50774;BME280;36745;48.544;8.918;2022-11-20T01:25:34;96883.84;;;2.26;100.00
50774;BME280;36745;48.544;8.918;2022-11-20T01:28:56;96879.22;;;2.20;100.00
50774;BME280;36745;48.544;8.918;2022-11-20T01:32:17;96891.66;;;2.17;100.00
50774;BME280;36745;48.544;8.918;2022-11-20T01:35:39;96890.09;;;2.16;100.00
50774;BME280;36745;48.544;8.918;2022-11-20T01:39:02;96888.53;;;2.19;100.00
50774;BME280;36745;48.544;8.918;2022-11-20T01:42:24;96886.22;;;2.14;100.00
50774;BME280;36745;48.544;8.918;2022-11-20T01:46:24;96881.63;;;2.03;100.00
50774;BME280;36745;48.544;8.918;2022-11-20T01:49:50;96885.50;;;2.02;100.00
50774;BME280;36745;48.544;8.918;2022-11-20T01:53:17;96884.75;;;1.98;100.00
50774;BME280;36745;48.544;8.918;2022-11-20T01:56:41;96886.25;;;2.06;100.00
50774;BME280;36745;48.544;8.918;2022-11-20T02:00:08;96884.69;;;2.13;100.00
50774;BME280;36745;48.544;8.918;2022-11-20T02:03:30;96889.69;;;2.25;100.00
50774;BME280;36745;48.544;8.918;2022-11-20T02:06:57;96885.41;;;2.24;100.00
50774;BME280;36745;48.544;8.918;2022-11-20T02:10:20;96888.53;;;2.19;100.00
50774;BME280;36745;48.544;8.918;2022-11-20T02:13:42;96883.91;;;2.12;100.00
50774;BME280;36745;48.544;8.918;2022-11-20T02:17:06;96880.00;;;2.17;100.00
50774;BME280;36745;48.544;8.918;2022-11-20T02:20:27;96878.47;;;2.16;100.00
50774;BME280;36745;48.544;8.918;2022-11-20T02:23:57;96873.81;;;2.13;100.00
50774;BME280;36745;48.544;8.918;2022-11-20T02:27:20;96880.09;;;1.95;100.00
50774;BME280;36745;48.544;8.918;2022-11-20T02:30:41;96869.97;;;2.03;100.00
50774;BME280;36745;48.544;8.918;2022-11-20T02:34:02;96866.88;;;2.04;100.00
50774;BME280;36745;48.544;8.918;2022-11-20T02:37:30;96863.75;;;2.02;100.00
50774;BME280;36745;48.544;8.918;2022-11-20T02:40:53;96866.09;;;1.97;100.00
50774;BME280;36745;48.544;8.918;2022-11-20T02:44:14;96865.34;;;1.93;100.00
50774;BME280;36745;48.544;8.918;2022-11-20T02:47:35;96863.44;;;1.86;100.00
50774;BME280;36745;48.544;8.918;2022-11-20T02:50:56;96865.34;;;1.96;100.00
50774;BME280;36745;48.544;8.918;2022-11-20T02:54:18;96863.03;;;1.91;100.00
50774;BME280;36745;48.544;8.918;2022-11-20T02:57:39;96868.44;;;1.95;100.00
50774;BME280;36745;48.544;8.918;2022-11-20T03:01:00;96875.03;;;1.97;100.00
50774;BME280;36745;48.544;8.918;2022-11-20T03:04:21;96884.69;;;2.05;100.00
50774;BME280;36745;48.544;8.918;2022-11-20T03:07:43;96870.75;;;2.03;100.00
50774;BME280;36745;48.544;8.918;2022-11-20T03:11:06;96869.25;;;1.88;100.00
50774;BME280;36745;48.544;8.918;2022-11-20T03:14:27;96862.94;;;2.05;100.00
50774;BME280;36745;48.544;8.918;2022-11-20T03:17:48;96864.13;;;2.08;100.00
50774;BME280;36745;48.544;8.918;2022-11-20T03:21:11;96870.75;;;2.03;100.00
50774;BME280;36745;48.544;8.918;2022-11-20T03:24:32;96868.38;;;2.13;100.00
50774;BME280;36745;48.544;8.918;2022-11-20T03:27:54;96860.97;;;2.20;100.00
50774;BME280;36745;48.544;8.918;2022-11-20T03:31:17;96857.47;;;2.20;100.00
50774;BME280;36745;48.544;8.918;2022-11-20T03:34:38;96866.81;;;2.11;100.00
50774;BME280;36745;48.544;8.918;2022-11-20T03:37:59;96875.69;;;2.23;100.00
50774;BME280;36745;48.544;8.918;2022-11-20T03:41:28;96871.38;;;2.36;100.00
50774;BME280;36745;48.544;8.918;2022-11-20T03:44:50;96873.34;;;2.32;100.00
50774;BME280;36745;48.544;8.918;2022-11-20T03:48:11;96872.16;;;2.36;100.00
50774;BME280;36745;48.544;8.918;2022-11-20T03:51:35;96875.97;;;2.46;100.00
50774;BME280;36745;48.544;8.918;2022-11-20T03:54:56;96879.84;;;2.45;100.00
50774;BME280;36745;48.544;8.918;2022-11-20T03:58:18;96878.28;;;2.51;100.00
50774;BME280;36745;48.544;8.918;2022-11-20T04:01:39;96881.72;;;2.55;100.00
50774;BME280;36745;48.544;8.918;2022-11-20T04:05:00;96880.53;;;2.60;100.00
50774;BME280;36745;48.544;8.918;2022-11-20T04:08:22;96878.16;;;2.65;100.00
50774;BME280;36745;48.544;8.918;2022-11-20T04:11:43;96880.47;;;2.70;100.00
50774;BME280;36745;48.544;8.918;2022-11-20T04:15:04;96874.94;;;2.84;100.00
50774;BME280;36745;48.544;8.918;2022-11-20T04:18:26;96883.50;;;2.83;100.00
50774;BME280;36745;48.544;8.918;2022-11-20T04:21:47;96879.22;;;2.85;100.00
50774;BME280;36745;48.544;8.918;2022-11-20T04:25:08;96872.56;;;2.90;100.00
50774;BME280;36745;48.544;8.918;2022-11-20T04:28:30;96872.47;;;3.01;100.00
50774;BME280;36745;48.544;8.918;2022-11-20T04:31:54;96870.13;;;3.03;100.00
50774;BME280;36745;48.544;8.918;2022-11-20T04:35:15;96874.03;;;3.02;100.00
50774;BME280;36745;48.544;8.918;2022-11-20T04:38:37;96866.22;;;3.04;100.00
50774;BME280;36745;48.544;8.918;2022-11-20T04:41:59;96863.44;;;3.11;100.00
50774;BME280;36745;48.544;8.918;2022-11-20T04:45:39;96866.13;;;3.18;100.00
50774;BME280;36745;48.544;8.918;2022-11-20T04:49:01;96862.19;;;3.19;100.00
50774;BME280;36745;48.544;8.918;2022-11-20T04:52:22;96856.75;;;3.19;100.00
50774;BME280;36745;48.544;8.918;2022-11-20T04:55:44;96858.91;;;3.38;100.00
50774;BME280;36745;48.544;8.918;2022-11-20T04:59:05;96859.25;;;3.44;100.00
50774;BME280;36745;48.544;8.918;2022-11-20T05:02:27;96857.53;;;3.60;100.00
50774;BME280;36745;48.544;8.918;2022-11-20T05:05:48;96860.03;;;3.78;100.00
50774;BME280;36745;48.544;8.918;2022-11-20T05:09:09;96854.41;;;3.96;100.00
50774;BME280;36745;48.544;8.918;2022-11-20T05:12:31;96848.94;;;3.96;100.00
50774;BME280;36745;48.544;8.918;2022-11-20T05:15:52;96850.81;;;4.02;100.00
50774;BME280;36745;48.544;8.918;2022-11-20T05:19:13;96854.38;;;3.99;100.00
50774;BME280;36745;48.544;8.918;2022-11-20T05:22:35;96852.00;;;4.01;100.00
50774;BME280;36745;48.544;8.918;2022-11-20T05:25:57;96848.88;;;4.03;100.00
50774;BME280;36745;48.544;8.918;2022-11-20T05:29:19;96847.13;;;4.16;100.00
50774;BME280;36745;48.544;8.918;2022-11-20T05:32:40;96851.69;;;4.26;100.00
50774;BME280;36745;48.544;8.918;2022-11-20T05:36:03;96855.16;;;4.27;100.00
50774;BME280;36745;48.544;8.918;2022-11-20T05:39:24;96841.97;;;4.21;100.00
50774;BME280;36745;48.544;8.918;2022-11-20T05:42:46;96844.38;;;4.19;100.00
50774;BME280;36745;48.544;8.918;2022-11-20T05:46:12;96851.72;;;4.22;100.00
50774;BME280;36745;48.544;8.918;2022-11-20T05:49:33;96847.66;;;4.34;100.00
50774;BME280;36745;48.544;8.918;2022-11-20T05:52:54;96848.53;;;4.28;100.00
50774;BME280;36745;48.544;8.918;2022-11-20T05:56:20;96843.75;;;4.35;100.00
50774;BME280;36745;48.544;8.918;2022-11-20T05:59:42;96851.56;;;4.33;100.00
50774;BME280;36745;48.544;8.918;2022-11-20T06:03:03;96850.84;;;4.29;100.00
50774;BME280;36745;48.544;8.918;2022-11-20T06:06:24;96851.31;;;4.24;100.00
50774;BME280;36745;48.544;8.918;2022-11-20T06:09:46;96847.41;;;4.25;100.00
50774;BME280;36745;48.544;8.918;2022-11-20T06:13:08;96850.09;;;4.29;100.00
50774;BME280;36745;48.544;8.918;2022-11-20T06:16:29;96853.22;;;4.27;100.00
50774;BME280;36745;48.544;8.918;2022-11-20T06:19:50;96840.41;;;4.24;100.00
50774;BME280;36745;48.544;8.918;2022-11-20T06:23:12;96848.59;;;4.24;100.00
50774;BME280;36745;48.544;8.918;2022-11-20T06:26:33;96841.03;;;4.35;100.00
50774;BME280;36745;48.544;8.918;2022-11-20T06:29:55;96850.09;;;4.29;100.00
50774;BME280;36745;48.544;8.918;2022-11-20T06:33:16;96839.03;;;4.39;100.00
50774;BME280;36745;48.544;8.918;2022-11-20T06:36:37;96853.13;;;4.34;100.00
50774;BME280;36745;48.544;8.918;2022-11-20T06:39:58;96850.47;;;4.31;100.00
50774;BME280;36745;48.544;8.918;2022-11-20T06:43:20;96845.25;;;4.40;100.00
50774;BME280;36745;48.544;8.918;2022-11-20T06:46:41;96858.97;;;4.36;100.00
50774;BME280;36745;48.544;8.918;2022-11-20T06:50:03;96850.41;;;4.34;100.00
50774;BME280;36745;48.544;8.918;2022-11-20T06:53:24;96840.63;;;4.37;100.00
50774;BME280;36745;48.544;8.918;2022-11-20T06:56:47;96845.31;;;4.36;100.00
50774;BME280;36745;48.544;8.918;2022-11-20T07:00:09;96846.09;;;4.37;100.00
50774;BME280;36745;48.544;8.918;2022-11-20T07:03:30;96847.66;;;4.34;100.00
50774;BME280;36745;48.544;8.918;2022-11-20T07:06:52;96849.94;;;4.39;100.00
50774;BME280;36745;48.544;8.918;2022-11-20T07:10:13;96856.94;;;4.40;100.00
50774;BME280;36745;48.544;8.918;2022-11-20T07:13:34;96863.13;;;4.44;100.00
50774;BME280;36745;48.544;8.918;2022-11-20T07:16:56;96864.59;;;4.52;100.00
50774;BME280;36745;48.544;8.918;2022-11-20T07:20:17;96869.22;;;4.55;100.00
50774;BME280;36745;48.544;8.918;2022-11-20T07:23:38;96871.84;;;4.62;100.00
50774;BME280;36745;48.544;8.918;2022-11-20T07:26:59;96869.06;;;4.66;100.00
50774;BME280;36745;48.544;8.918;2022-11-20T07:30:21;96868.19;;;4.73;100.00
50774;BME280;36745;48.544;8.918;2022-11-20T07:33:42;96877.50;;;4.75;100.00
50774;BME280;36745;48.544;8.918;2022-11-20T07:37:03;96874.25;;;4.84;100.00
50774;BME280;36745;48.544;8.918;2022-11-20T07:40:24;96871.78;;;4.93;100.00
50774;BME280;36745;48.544;8.918;2022-11-20T07:43:46;96875.19;;;5.00;100.00
50774;BME280;36745;48.544;8.918;2022-11-20T07:47:07;96880.88;;;5.10;100.00
50774;BME280;36745;48.544;8.918;2022-11-20T07:50:28;96879.03;;;5.26;100.00
50774;BME280;36745;48.544;8.918;2022-11-20T07:53:53;96875.72;;;5.38;100.00
50774;BME280;36745;48.544;8.918;2022-11-20T07:57:14;96872.41;;;5.51;100.00
50774;BME280;36745;48.544;8.918;2022-11-20T08:00:35;96878.00;;;5.63;100.00
50774;BME280;36745;48.544;8.918;2022-11-20T08:03:56;96885.31;;;5.70;100.00
50774;BME280;36745;48.544;8.918;2022-11-20T08:07:17;96880.56;;;5.74;100.00
50774;BME280;36745;48.544;8.918;2022-11-20T08:10:39;96883.09;;;5.84;100.00
50774;BME280;36745;48.544;8.918;2022-11-20T08:14:00;96888.38;;;5.95;100.00
50774;BME280;36745;48.544;8.918;2022-11-20T08:17:33;96895.78;;;5.98;100.00
50774;BME280;36745;48.544;8.918;2022-11-20T08:20:54;96891.56;;;6.13;100.00
50774;BME280;36745;48.544;8.918;2022-11-20T08:24:16;96892.66;;;6.16;100.00
50774;BME280;36745;48.544;8.918;2022-11-20T08:27:37;96908.53;;;6.24;100.00
50774;BME280;36745;48.544;8.918;2022-11-20T08:30:59;96900.34;;;6.24;100.00
50774;BME280;36745;48.544;8.918;2022-11-20T08:34:21;96909.22;;;6.28;100.00
50774;BME280;36745;48.544;8.918;2022-11-20T08:37:46;96907.69;;;6.27;100.00
50774;BME280;36745;48.544;8.918;2022-11-20T08:41:07;96919.34;;;6.31;100.00
50774;BME280;36745;48.544;8.918;2022-11-20T08:44:47;96922.91;;;6.28;100.00
50774;BME280;36745;48.544;8.918;2022-11-20T08:48:08;96916.13;;;6.37;100.00
50774;BME280;36745;48.544;8.918;2022-11-20T08:51:30;96918.38;;;6.42;100.00
50774;BME280;36745;48.544;8.918;2022-11-20T08:54:51;96927.06;;;6.37;100.00
50774;BME280;36745;48.544;8.918;2022-11-20T08:58:12;96926.91;;;6.44;100.00
50774;BME280;36745;48.544;8.918;2022-11-20T09:01:34;96930.16;;;6.58;100.00
50774;BME280;36745;48.544;8.918;2022-11-20T09:04:56;96925.69;;;6.64;100.00
50774;BME280;36745;48.544;8.918;2022-11-20T09:08:17;96923.09;;;6.77;100.00
50774;BME280;36745;48.544;8.918;2022-11-20T09:11:38;96930.88;;;6.79;100.00
50774;BME280;36745;48.544;8.918;2022-11-20T09:15:00;96919.38;;;6.67;99.83
50774;BME280;36745;48.544;8.918;2022-11-20T09:18:21;96928.00;;;6.66;100.00
50774;BME280;36745;48.544;8.918;2022-11-20T09:21:42;96925.13;;;6.73;100.00
50774;BME280;36745;48.544;8.918;2022-11-20T09:25:04;96934.13;;;6.73;99.54
50774;BME280;36745;48.544;8.918;2022-11-20T09:28:26;96934.34;;;6.63;100.00
50774;BME280;36745;48.544;8.918;2022-11-20T09:31:47;96941.38;;;6.64;100.00
50774;BME280;36745;48.544;8.918;2022-11-20T09:35:09;96951.38;;;6.70;100.00
50774;BME280;36745;48.544;8.918;2022-11-20T09:38:31;96944.31;;;6.73;100.00
50774;BME280;36745;48.544;8.918;2022-11-20T09:53:20;96948.50;;;6.78;100.00
50774;BME280;36745;48.544;8.918;2022-11-20T09:56:57;96946.41;;;6.85;100.00
50774;BME280;36745;48.544;8.918;2022-11-20T10:00:20;96946.41;;;6.85;100.00
50774;BME280;36745;48.544;8.918;2022-11-20T10:07:27;96947.22;;;6.82;100.00
50774;BME280;36745;48.544;8.918;2022-11-20T10:11:17;96951.03;;;6.88;100.00
50774;BME280;36745;48.544;8.918;2022-11-20T10:15:12;96946.69;;;7.07;100.00
50774;BME280;36745;48.544;8.918;2022-11-20T10:29:35;96935.13;;;7.15;99.97
50774;BME280;36745;48.544;8.918;2022-11-20T10:33:11;96942.84;;;7.37;100.00
50774;BME280;36745;48.544;8.918;2022-11-20T10:36:38;96934.78;;;7.46;100.00
50774;BME280;36745;48.544;8.918;2022-11-20T10:40:18;96931.91;;;7.37;98.75
50774;BME280;36745;48.544;8.918;2022-11-20T10:43:41;96937.47;;;7.33;99.28
50774;BME280;36745;48.544;8.918;2022-11-20T10:47:05;96930.75;;;7.50;99.43
50774;BME280;36745;48.544;8.918;2022-11-20T10:50:27;96933.75;;;7.56;99.03
50774;BME280;36745;48.544;8.918;2022-11-20T10:57:51;96933.25;;;7.77;98.61
50774;BME280;36745;48.544;8.918;2022-11-20T11:01:16;96935.47;;;7.82;98.54
50774;BME280;36745;48.544;8.918;2022-11-20T11:04:43;96930.44;;;8.10;99.45
50774;BME280;36745;48.544;8.918;2022-11-20T11:08:14;96917.63;;;8.19;97.86
50774;BME280;36745;48.544;8.918;2022-11-20T11:11:38;96923.09;;;8.35;96.88
50774;BME280;36745;48.544;8.918;2022-11-20T11:14:59;96911.13;;;8.42;97.17
50774;BME280;36745;48.544;8.918;2022-11-20T11:18:27;96902.00;;;8.45;96.20
50774;BME280;36745;48.544;8.918;2022-11-20T11:21:51;96906.06;;;8.40;94.92
50774;BME280;36745;48.544;8.918;2022-11-20T11:25:22;96898.03;;;8.33;93.70
50774;BME280;36745;48.544;8.918;2022-11-20T11:29:01;96886.97;;;8.21;93.72
50774;BME280;36745;48.544;8.918;2022-11-20T11:32:23;96889.72;;;8.21;92.28
50774;BME280;36745;48.544;8.918;2022-11-20T11:35:49;96884.72;;;8.03;91.19
50774;BME280;36745;48.544;8.918;2022-11-20T11:39:18;96894.34;;;7.95;90.96
50774;BME280;36745;48.544;8.918;2022-11-20T11:42:56;96883.47;;;7.91;90.35
50774;BME280;36745;48.544;8.918;2022-11-20T11:46:35;96876.41;;;8.48;90.46
50774;BME280;36745;48.544;8.918;2022-11-20T11:53:31;96860.63;;;9.97;88.61
50774;BME280;36745;48.544;8.918;2022-11-20T11:56:54;96862.56;;;10.31;86.69
50774;BME280;36745;48.544;8.918;2022-11-20T12:00:18;96855.22;;;10.15;86.81
50774;BME280;36745;48.544;8.918;2022-11-20T12:03:42;96863.81;;;9.01;82.36
50774;BME280;36745;48.544;8.918;2022-11-20T12:07:51;96855.13;;;8.77;84.68
50774;BME280;36745;48.544;8.918;2022-11-20T12:11:34;96850.72;;;8.67;83.81
50774;BME280;36745;48.544;8.918;2022-11-20T12:14:59;96845.19;;;9.18;83.02
50774;BME280;36745;48.544;8.918;2022-11-20T12:18:21;96847.72;;;9.38;83.26
50774;BME280;36745;48.544;8.918;2022-11-20T12:21:58;96846.16;;;10.27;82.19
50774;BME280;36745;48.544;8.918;2022-11-20T12:25:33;96844.19;;;9.37;79.69
50774;BME280;36745;48.544;8.918;2022-11-20T12:29:14;96848.88;;;8.90;78.21
50774;BME280;36745;48.544;8.918;2022-11-20T12:33:08;96855.25;;;8.20;79.40
50774;BME280;36745;48.544;8.918;2022-11-20T12:36:50;96850.34;;;7.98;80.27
50774;BME280;36745;48.544;8.918;2022-11-20T12:44:52;96833.31;;;9.90;82.36
50774;BME280;36745;48.544;8.918;2022-11-20T12:52:15;96838.56;;;10.62;77.99
50774;BME280;36745;48.544;8.918;2022-11-20T13:03:27;96851.38;;;8.97;74.85
50774;BME280;36745;48.544;8.918;2022-11-20T13:06:44;96855.97;;;8.49;76.88
50774;BME280;36745;48.544;8.918;2022-11-20T13:17:33;96845.97;;;7.72;78.48
50774;BME280;36745;48.544;8.918;2022-11-20T13:20:56;96842.53;;;7.68;78.86
50774;BME280;36745;48.544;8.918;2022-11-20T13:24:23;96848.91;;;7.65;78.85
50774;BME280;36745;48.544;8.918;2022-11-20T13:27:49;96839.38;;;7.70;78.86
50774;BME280;36745;48.544;8.918;2022-11-20T13:31:32;96840.50;;;7.56;78.63
50774;BME280;36745;48.544;8.918;2022-11-20T13:34:56;96819.00;;;7.54;78.61
50774;BME280;36745;48.544;8.918;2022-11-20T13:38:18;96822.94;;;7.53;79.44
50774;BME280;36745;48.544;8.918;2022-11-20T13:41:39;96810.81;;;7.67;79.85
50774;BME280;36745;48.544;8.918;2022-11-20T13:45:08;96816.13;;;7.74;79.73
50774;BME280;36745;48.544;8.918;2022-11-20T13:48:32;96815.78;;;7.72;79.60
50774;BME280;36745;48.544;8.918;2022-11-20T13:55:42;96818.56;;;7.56;80.23
50774;BME280;36745;48.544;8.918;2022-11-20T14:03:08;96805.38;;;7.51;80.44
50774;BME280;36745;48.544;8.918;2022-11-20T14:06:40;96807.28;;;7.54;80.67
50774;BME280;36745;48.544;8.918;2022-11-20T14:10:02;96800.88;;;7.44;80.96
50774;BME280;36745;48.544;8.918;2022-11-20T14:13:23;96804.03;;;7.43;81.71
50774;BME280;36745;48.544;8.918;2022-11-20T14:16:45;96805.06;;;7.49;81.99
50774;BME280;36745;48.544;8.918;2022-11-20T14:20:12;96800.00;;;7.47;81.81
50774;BME280;36745;48.544;8.918;2022-11-20T14:23:35;96803.38;;;7.39;81.89
50774;BME280;36745;48.544;8.918;2022-11-20T14:26:56;96802.00;;;7.31;82.38
50774;BME280;36745;48.544;8.918;2022-11-20T14:30:35;96794.97;;;7.30;82.41
50774;BME280;36745;48.544;8.918;2022-11-20T14:33:57;96798.94;;;7.29;82.84
50774;BME280;36745;48.544;8.918;2022-11-20T14:37:24;96804.06;;;7.27;83.42
50774;BME280;36745;48.544;8.918;2022-11-20T14:40:47;96787.75;;;7.36;83.28
50774;BME280;36745;48.544;8.918;2022-11-20T14:44:09;96778.53;;;7.30;83.75
50774;BME280;36745;48.544;8.918;2022-11-20T14:47:31;96776.66;;;7.27;83.91
50774;BME280;36745;48.544;8.918;2022-11-20T14:50:52;96768.78;;;7.29;83.83
50774;BME280;36745;48.544;8.918;2022-11-20T14:57:36;96764.66;;;7.21;84.60
50774;BME280;36745;48.544;8.918;2022-11-20T15:01:03;96754.06;;;7.23;84.71
50774;BME280;36745;48.544;8.918;2022-11-20T15:04:25;96758.41;;;7.20;84.67
50774;BME280;36745;48.544;8.918;2022-11-20T15:07:50;96754.59;;;7.01;85.46
50774;BME280;36745;48.544;8.918;2022-11-20T15:11:19;96742.63;;;6.95;85.52
50774;BME280;36745;48.544;8.918;2022-11-20T15:14:41;96740.16;;;6.85;85.90
50774;BME280;36745;48.544;8.918;2022-11-20T15:18:03;96736.81;;;6.77;86.56
50774;BME280;36745;48.544;8.918;2022-11-20T15:21:25;96734.44;;;6.63;86.78
50774;BME280;36745;48.544;8.918;2022-11-20T15:24:46;96727.13;;;6.72;85.92
50774;BME280;36745;48.544;8.918;2022-11-20T15:28:28;96720.22;;;6.52;86.36
50774;BME280;36745;48.544;8.918;2022-11-20T15:31:50;96720.03;;;6.43;86.90
50774;BME280;36745;48.544;8.918;2022-11-20T15:35:14;96721.41;;;6.51;86.55
50774;BME280;36745;48.544;8.918;2022-11-20T15:38:36;96713.34;;;6.44;86.19
50774;BME280;36745;48.544;8.918;2022-11-20T15:41:57;96720.38;;;6.45;86.38
50774;BME280;36745;48.544;8.918;2022-11-20T15:45:19;96713.72;;;6.46;86.62
50774;BME280;36745;48.544;8.918;2022-11-20T15:48:43;96713.97;;;6.51;86.51
50774;BME280;36745;48.544;8.918;2022-11-20T15:52:05;96709.59;;;6.38;87.60
50774;BME280;36745;48.544;8.918;2022-11-20T15:55:26;96699.94;;;6.33;87.94
50774;BME280;36745;48.544;8.918;2022-11-20T15:58:48;96701.88;;;6.32;87.82
50774;BME280;36745;48.544;8.918;2022-11-20T16:02:13;96698.97;;;6.23;88.17
50774;BME280;36745;48.544;8.918;2022-11-20T16:05:35;96700.00;;;6.13;88.74
50774;BME280;36745;48.544;8.918;2022-11-20T16:08:56;96701.69;;;6.07;89.10
50774;BME280;36745;48.544;8.918;2022-11-20T16:12:17;96700.34;;;5.99;89.13
50774;BME280;36745;48.544;8.918;2022-11-20T16:16:04;96706.22;;;5.98;89.43
50774;BME280;36745;48.544;8.918;2022-11-20T16:19:26;96700.34;;;5.99;89.74
50774;BME280;36745;48.544;8.918;2022-11-20T16:22:47;96694.09;;;5.99;89.83
50774;BME280;36745;48.544;8.918;2022-11-20T16:26:10;96695.28;;;5.98;90.01
50774;BME280;36745;48.544;8.918;2022-11-20T16:29:31;96694.50;;;5.97;90.04
50774;BME280;36745;48.544;8.918;2022-11-20T16:32:53;96694.16;;;5.95;90.30
50774;BME280;36745;48.544;8.918;2022-11-20T16:36:14;96692.44;;;6.01;90.23
50774;BME280;36745;48.544;8.918;2022-11-20T16:39:36;96698.78;;;5.98;89.83
50774;BME280;36745;48.544;8.918;2022-11-20T16:42:57;96694.00;;;6.02;89.93
50774;BME280;36745;48.544;8.918;2022-11-20T16:46:20;96691.63;;;6.04;89.60
50774;BME280;36745;48.544;8.918;2022-11-20T16:49:42;96688.03;;;6.07;89.54
50774;BME280;36745;48.544;8.918;2022-11-20T16:53:03;96700.84;;;6.10;89.68
50774;BME280;36745;48.544;8.918;2022-11-20T16:56:25;96689.88;;;6.10;89.69
50774;BME280;36745;48.544;8.918;2022-11-20T16:59:47;96682.91;;;6.09;89.32
50774;BME280;36745;48.544;8.918;2022-11-20T17:03:08;96690.59;;;6.14;89.37
50774;BME280;36745;48.544;8.918;2022-11-20T17:06:32;96683.84;;;6.19;89.05
50774;BME280;36745;48.544;8.918;2022-11-20T17:09:54;96685.13;;;6.14;89.36
50774;BME280;36745;48.544;8.918;2022-11-20T17:13:15;96673.81;;;6.12;89.51
50774;BME280;36745;48.544;8.918;2022-11-20T17:16:37;96681.34;;;6.08;89.73
50774;BME280;36745;48.544;8.918;2022-11-20T17:19:58;96678.88;;;6.14;89.46
50774;BME280;36745;48.544;8.918;2022-11-20T17:23:19;96667.94;;;6.14;89.19
50774;BME280;36745;48.544;8.918;2022-11-20T17:26:41;96668.97;;;6.04;89.77
50774;BME280;36745;48.544;8.918;2022-11-20T17:30:03;96670.66;;;5.98;90.10
50774;BME280;36745;48.544;8.918;2022-11-20T17:33:24;96669.19;;;5.93;90.15
50774;BME280;36745;48.544;8.918;2022-11-20T17:36:46;96671.59;;;5.91;90.22
50774;BME280;36745;48.544;8.918;2022-11-20T17:40:07;96667.31;;;5.90;90.40
50774;BME280;36745;48.544;8.918;2022-11-20T17:43:28;96668.50;;;5.89;90.58
50774;BME280;36745;48.544;8.918;2022-11-20T17:46:50;96666.09;;;5.91;90.46
50774;BME280;36745;48.544;8.918;2022-11-20T17:50:11;96659.97;;;5.87;90.58
50774;BME280;36745;48.544;8.918;2022-11-20T17:53:34;96651.38;;;5.85;90.42
50774;BME280;36745;48.544;8.918;2022-11-20T17:56:56;96651.38;;;5.85;90.56
50774;BME280;36745;48.544;8.918;2022-11-20T18:00:36;96644.34;;;5.84;90.44
50774;BME280;36745;48.544;8.918;2022-11-20T18:03:57;96642.53;;;5.97;89.43
50774;BME280;36745;48.544;8.918;2022-11-20T18:07:18;96629.56;;;5.81;89.61
50774;BME280;36745;48.544;8.918;2022-11-20T18:10:39;96624.00;;;5.85;89.57
50774;BME280;36745;48.544;8.918;2022-11-20T18:14:04;96626.28;;;5.90;89.98
50774;BME280;36745;48.544;8.918;2022-11-20T18:17:44;96609.16;;;5.86;89.35
50774;BME280;36745;48.544;8.918;2022-11-20T18:21:05;96618.75;;;5.94;89.12
50774;BME280;36745;48.544;8.918;2022-11-20T18:24:27;96611.41;;;5.91;88.14
50774;BME280;36745;48.544;8.918;2022-11-20T18:27:48;96612.94;;;5.92;88.43
50774;BME280;36745;48.544;8.918;2022-11-20T18:31:10;96610.22;;;5.92;88.32
50774;BME280;36745;48.544;8.918;2022-11-20T18:34:31;96613.63;;;5.96;88.37
50774;BME280;36745;48.544;8.918;2022-11-20T18:37:52;96592.78;;;6.02;87.04
50774;BME280;36745;48.544;8.918;2022-11-20T18:41:19;96595.88;;;5.84;85.95
50774;BME280;36745;48.544;8.918;2022-11-20T18:44:59;96597.94;;;5.80;84.84
50774;BME280;36745;48.544;8.918;2022-11-20T18:48:22;96604.00;;;5.72;84.69
50774;BME280;36745;48.544;8.918;2022-11-20T18:51:43;96599.56;;;5.78;84.80
50774;BME280;36745;48.544;8.918;2022-11-20T18:55:05;96599.13;;;5.79;84.66
50774;BME280;36745;48.544;8.918;2022-11-20T18:58:27;96598.47;;;5.75;84.48
50774;BME280;36745;48.544;8.918;2022-11-20T19:01:48;96604.88;;;5.85;85.00
50774;BME280;36745;48.544;8.918;2022-11-20T19:05:11;96600.41;;;5.75;85.00
50774;BME280;36745;48.544;8.918;2022-11-20T19:08:33;96600.31;;;5.62;84.68
50774;BME280;36745;48.544;8.918;2022-11-20T19:11:54;96600.31;;;5.62;85.37
50774;BME280;36745;48.544;8.918;2022-11-20T19:15:16;96604.31;;;5.58;85.57